createdAt,value
2019-06-15T00:02:19.068Z,26.93
2019-06-15T00:05:17.048Z,18.00
2019-06-15T00:08:14.952Z,21.27
2019-06-15T00:11:12.695Z,20.13
2019-06-15T00:14:10.483Z,19.23
2019-06-15T00:17:08.584Z,20.70
2019-06-15T00:20:08.145Z,21.30
2019-06-15T00:23:06.108Z,19.47
2019-06-15T00:26:04.294Z,20.10
2019-06-15T00:29:02.093Z,18.80
2019-06-15T00:32:00.201Z,18.17
2019-06-15T00:34:58.217Z,25.73
2019-06-15T00:37:56.012Z,18.70
2019-06-15T00:40:54.048Z,20.20
2019-06-15T00:43:52.547Z,23.60
2019-06-15T00:46:50.590Z,20.33
2019-06-15T00:49:48.394Z,17.20
2019-06-15T00:52:46.473Z,21.87
2019-06-15T00:55:44.575Z,17.30
2019-06-15T00:58:42.613Z,17.20
2019-06-15T01:01:40.659Z,24.13
2019-06-15T01:04:38.749Z,18.77
2019-06-15T01:07:36.559Z,15.23
2019-06-15T01:10:34.345Z,23.77
2019-06-15T01:13:32.427Z,18.70
2019-06-15T01:16:30.483Z,19.00
2019-06-15T01:19:28.287Z,16.90
2019-06-15T01:22:26.152Z,20.07
2019-06-15T01:25:23.990Z,22.63
2019-06-15T01:28:21.733Z,24.50
2019-06-15T01:31:20.169Z,16.00
2019-06-15T01:34:17.949Z,18.93
2019-06-15T01:37:16.094Z,18.07
2019-06-15T01:40:14.769Z,17.43
2019-06-15T01:43:13.033Z,19.70
2019-06-15T01:46:11.328Z,16.07
2019-06-15T01:49:09.053Z,22.03
2019-06-15T01:52:07.197Z,20.17
2019-06-15T01:55:19.671Z,20.30
2019-06-15T01:58:04.557Z,16.27
2019-06-15T02:01:02.689Z,17.03
2019-06-15T02:04:00.771Z,15.53
2019-06-15T02:06:58.920Z,20.70
2019-06-15T02:09:56.973Z,21.90
2019-06-15T02:12:55.461Z,17.40
2019-06-15T02:15:53.622Z,16.40
2019-06-15T02:18:51.970Z,18.57
2019-06-15T02:21:50.040Z,16.43
2019-06-15T02:24:48.132Z,20.27
2019-06-15T02:27:46.329Z,16.60
2019-06-15T02:30:44.131Z,16.97
2019-06-15T02:33:42.296Z,20.47
2019-06-15T02:36:40.397Z,16.03
2019-06-15T02:39:38.815Z,20.37
2019-06-15T02:42:36.617Z,23.50
2019-06-15T02:45:34.418Z,11.27
2019-06-15T02:48:32.517Z,15.57
2019-06-15T02:51:30.644Z,13.70
2019-06-15T02:54:28.416Z,10.47
2019-06-15T02:57:26.442Z,17.93
2019-06-15T03:00:28.360Z,15.73
2019-06-15T03:03:26.878Z,9.97
2019-06-15T03:06:24.559Z,12.33
2019-06-15T03:09:22.600Z,12.30
2019-06-15T03:12:20.642Z,15.50
2019-06-15T03:15:18.515Z,19.80
2019-06-15T03:18:16.313Z,12.70
2019-06-15T03:21:14.279Z,11.03
2019-06-15T03:24:12.378Z,11.00
2019-06-15T03:27:10.247Z,13.17
2019-06-15T03:30:08.401Z,13.70
2019-06-15T03:33:06.245Z,15.63
2019-06-15T03:36:04.265Z,16.03
2019-06-15T03:39:02.144Z,20.60
2019-06-15T03:41:59.933Z,11.90
2019-06-15T03:44:58.410Z,15.37
2019-06-15T03:47:56.178Z,15.77
2019-06-15T03:50:54.276Z,13.57
2019-06-15T04:18:26.469Z,14.67
2019-06-15T04:21:25.534Z,15.97
2019-06-15T04:24:24.638Z,23.07
2019-06-15T04:27:23.729Z,16.60
2019-06-15T04:30:22.905Z,17.30
2019-06-15T04:33:22.046Z,12.27
2019-06-15T04:36:20.858Z,34.67
2019-06-15T04:39:20.241Z,17.90
2019-06-15T04:42:19.449Z,21.20
2019-06-15T04:45:18.746Z,17.20
2019-06-15T04:48:17.812Z,21.33
2019-06-15T04:51:16.890Z,16.83
2019-06-15T04:54:16.033Z,21.47
2019-06-15T04:57:14.842Z,19.50
2019-06-15T05:00:14.249Z,15.60
2019-06-15T05:03:13.054Z,19.03
2019-06-15T05:06:12.621Z,14.67
2019-06-15T05:09:12.030Z,18.43
2019-06-15T05:12:11.077Z,14.03
2019-06-15T05:15:09.958Z,20.83
2019-06-15T05:18:09.886Z,19.93
2019-06-15T05:21:09.058Z,22.10
2019-06-15T05:24:08.752Z,13.70
2019-06-15T05:27:07.697Z,16.80
2019-06-15T05:30:07.309Z,15.67
2019-06-15T05:33:06.823Z,27.57
2019-06-15T05:36:06.419Z,14.23
2019-06-15T05:39:06.521Z,13.00
2019-06-15T05:42:06.416Z,15.67
2019-06-15T05:45:06.119Z,12.17
2019-06-15T05:48:05.722Z,14.53
2019-06-15T05:51:04.749Z,19.70
2019-06-15T05:54:04.004Z,17.57
2019-06-15T05:57:03.489Z,25.00
2019-06-15T06:00:03.027Z,12.20
2019-06-15T06:03:01.967Z,9.70
2019-06-15T06:06:01.173Z,12.23
2019-06-15T06:09:00.668Z,12.03
2019-06-15T06:12:00.067Z,17.10
2019-06-15T06:14:59.210Z,16.33
2019-06-15T06:17:59.029Z,24.97
2019-06-15T06:20:58.120Z,18.70
2019-06-15T06:23:57.209Z,15.97
2019-06-15T06:26:56.365Z,20.70
2019-06-15T06:29:55.459Z,18.77
2019-06-15T06:32:54.300Z,13.80
2019-06-15T06:35:54.098Z,13.63
2019-06-15T06:38:53.303Z,13.80
2019-06-15T06:41:52.197Z,13.23
2019-06-15T06:44:51.095Z,7.97
2019-06-15T06:47:50.254Z,22.77
2019-06-15T06:50:49.827Z,17.53
2019-06-15T06:53:49.050Z,7.00
2019-06-15T06:56:48.729Z,21.00
2019-06-15T06:59:47.899Z,15.17
2019-06-15T07:02:47.050Z,13.40
2019-06-15T07:05:46.186Z,15.60
2019-06-15T07:08:48.024Z,12.07
2019-06-15T07:11:46.398Z,15.37
2019-06-15T07:14:45.763Z,9.33
2019-06-15T07:17:44.979Z,5.23
2019-06-15T07:20:44.178Z,8.20
2019-06-15T07:23:43.644Z,8.23
2019-06-15T07:26:43.142Z,12.60
2019-06-15T07:29:41.983Z,10.00
2019-06-15T07:32:41.097Z,5.50
2019-06-15T07:35:40.579Z,7.40
2019-06-15T07:38:40.311Z,8.00
2019-06-15T07:41:39.784Z,3.90
2019-06-15T07:44:38.721Z,6.23
2019-06-15T07:47:37.900Z,7.10
2019-06-15T07:50:37.584Z,3.63
2019-06-15T07:53:36.364Z,11.70
2019-06-15T07:56:35.182Z,5.17
2019-06-15T07:59:33.974Z,5.63
2019-06-15T08:02:33.052Z,3.87
2019-06-15T08:05:32.450Z,6.10
2019-06-15T08:08:32.248Z,5.20
2019-06-15T08:11:31.074Z,5.97
2019-06-15T08:14:29.932Z,3.03
2019-06-15T08:17:29.397Z,4.03
2019-06-15T08:20:33.055Z,3.30
2019-06-15T08:23:32.168Z,6.27
2019-06-15T08:26:31.385Z,4.47
2019-06-15T08:29:30.786Z,2.53
2019-06-15T08:32:29.688Z,2.10
2019-06-15T08:35:29.097Z,7.43
2019-06-15T08:38:28.334Z,3.40
2019-06-15T08:41:27.789Z,7.57
2019-06-15T08:44:27.286Z,2.57
2019-06-15T08:47:26.483Z,3.70
2019-06-15T08:50:25.964Z,8.90
2019-06-15T08:53:25.452Z,4.30
2019-06-15T08:56:24.510Z,6.20
2019-06-15T08:59:23.605Z,4.67
2019-06-15T09:02:22.706Z,3.73
2019-06-15T09:05:21.569Z,4.40
2019-06-15T09:08:21.192Z,3.13
2019-06-15T09:11:20.357Z,2.43
2019-06-15T09:14:19.541Z,3.87
2019-06-15T09:17:18.787Z,5.07
2019-06-15T09:20:18.869Z,9.63
2019-06-15T09:23:18.332Z,2.70
2019-06-15T09:26:17.236Z,2.83
2019-06-15T09:29:16.706Z,3.73
2019-06-15T09:32:18.095Z,6.00
2019-06-15T09:35:16.192Z,5.37
2019-06-15T09:38:14.223Z,4.90
2019-06-15T09:41:13.237Z,8.90
2019-06-15T09:44:11.164Z,3.80
2019-06-15T09:47:09.364Z,3.20
2019-06-15T09:50:07.180Z,5.30
2019-06-15T09:53:06.098Z,4.50
2019-06-15T09:56:04.457Z,7.70
2019-06-15T09:59:02.251Z,6.00
2019-06-15T10:02:00.384Z,3.87
2019-06-15T10:04:58.540Z,2.83
2019-06-15T10:07:56.704Z,3.47
2019-06-15T10:10:54.753Z,6.57
2019-06-15T10:13:52.728Z,3.50
2019-06-15T10:16:50.455Z,3.73
2019-06-15T10:19:48.599Z,6.13
2019-06-15T10:22:46.999Z,9.53
2019-06-15T10:25:45.125Z,3.53
2019-06-15T10:28:42.858Z,8.00
2019-06-15T10:31:40.849Z,9.00
2019-06-15T10:34:38.641Z,5.63
2019-06-15T10:37:36.981Z,4.43
2019-06-15T10:40:34.797Z,5.87
2019-06-15T10:43:32.862Z,5.10
2019-06-15T10:46:30.938Z,3.90
2019-06-15T10:49:28.776Z,7.20
2019-06-15T10:52:26.860Z,4.30
2019-06-15T10:55:24.616Z,5.90
2019-06-15T10:58:22.623Z,5.90
2019-06-15T11:01:22.093Z,5.33
2019-06-15T11:04:19.873Z,3.50
2019-06-15T11:07:17.606Z,7.83
2019-06-15T11:10:17.238Z,10.77
2019-06-15T11:13:15.417Z,4.47
2019-06-15T11:16:13.662Z,10.03
2019-06-15T11:19:11.761Z,4.57
2019-06-15T11:22:09.837Z,4.37
2019-06-15T11:25:07.996Z,5.50
2019-06-15T11:28:05.810Z,7.57
2019-06-15T11:31:04.012Z,9.27
2019-06-15T11:34:02.083Z,9.17
2019-06-15T11:37:00.941Z,5.83
2019-06-15T11:39:59.325Z,6.10
2019-06-15T11:42:57.104Z,7.57
2019-06-15T11:45:55.332Z,10.40
2019-06-15T11:48:53.346Z,4.93
2019-06-15T11:51:51.733Z,5.80
2019-06-15T11:54:49.510Z,5.60
2019-06-15T11:57:47.521Z,5.33
2019-06-15T12:00:45.228Z,5.57
2019-06-15T12:03:43.284Z,8.93
2019-06-15T12:06:41.368Z,5.27
2019-06-15T12:09:39.535Z,5.20
2019-06-15T12:12:37.488Z,4.70
2019-06-15T12:15:35.561Z,3.43
2019-06-15T12:18:33.691Z,5.77
2019-06-15T12:21:31.461Z,4.80
2019-06-15T12:24:29.784Z,3.30
2019-06-15T12:27:27.833Z,7.80
2019-06-15T12:30:29.724Z,3.60
2019-06-15T12:33:28.089Z,7.80
2019-06-15T12:36:26.545Z,3.07
2019-06-15T12:39:24.589Z,12.63
2019-06-15T12:42:22.530Z,3.53
2019-06-15T12:45:20.379Z,5.40
2019-06-15T12:48:18.172Z,6.87
2019-06-15T12:51:16.242Z,8.47
2019-06-15T12:54:14.576Z,6.00
2019-06-15T12:57:12.682Z,10.43
2019-06-15T13:00:10.929Z,7.70
2019-06-15T13:03:08.982Z,5.00
2019-06-15T13:06:07.140Z,6.10
2019-06-15T13:09:05.859Z,8.10
2019-06-15T13:12:03.988Z,6.33
2019-06-15T13:15:01.683Z,8.10
2019-06-15T13:18:00.614Z,8.60
2019-06-15T13:20:58.674Z,8.70
2019-06-15T13:23:56.732Z,13.17
2019-06-15T13:26:54.521Z,12.33
2019-06-15T13:29:52.502Z,6.47
2019-06-15T13:32:50.559Z,7.67
2019-06-15T13:35:48.537Z,5.27
2019-06-15T13:38:46.605Z,8.90
2019-06-15T13:41:44.694Z,9.60
2019-06-15T13:44:43.154Z,6.83
2019-06-15T13:47:41.257Z,7.50
2019-06-15T13:50:39.379Z,7.60
2019-06-15T13:53:37.724Z,10.80
2019-06-15T13:56:35.701Z,5.70
2019-06-15T13:59:33.414Z,5.83
2019-06-15T14:02:31.489Z,9.53
2019-06-15T14:05:29.575Z,7.63
2019-06-15T14:08:27.540Z,8.77
2019-06-15T14:11:25.422Z,5.60
2019-06-15T14:14:23.853Z,13.23
2019-06-15T14:17:21.814Z,11.53
2019-06-15T14:20:19.953Z,12.43
2019-06-15T14:23:17.728Z,10.10
2019-06-15T14:26:15.846Z,6.77
2019-06-15T14:29:17.171Z,13.47
2019-06-15T14:32:13.084Z,7.60
2019-06-15T14:35:11.292Z,8.80
2019-06-15T14:38:09.148Z,8.47
2019-06-15T14:41:07.328Z,7.70
2019-06-15T14:44:05.572Z,14.20
2019-06-15T14:47:03.362Z,5.70
2019-06-15T14:50:01.702Z,8.83
2019-06-15T14:52:59.512Z,7.13
2019-06-15T14:55:57.922Z,8.47
2019-06-15T14:58:56.428Z,7.67
2019-06-15T15:02:09.070Z,6.87
2019-06-15T15:04:56.299Z,7.30
2019-06-15T15:07:56.175Z,7.97
2019-06-15T15:10:56.135Z,5.57
2019-06-15T15:13:56.091Z,7.23
2019-06-15T15:16:53.529Z,3.77
2019-06-15T15:19:51.335Z,7.40
2019-06-15T15:22:49.751Z,8.27
2019-06-15T15:25:48.084Z,11.67
2019-06-15T15:28:47.321Z,14.47
2019-06-15T15:31:46.728Z,9.53
2019-06-15T15:34:44.955Z,4.00
2019-06-15T15:37:43.038Z,6.80
2019-06-15T15:40:41.088Z,11.07
2019-06-15T15:43:39.149Z,6.77
2019-06-15T15:46:37.332Z,7.23
2019-06-15T15:49:36.653Z,10.63
2019-06-15T15:52:37.153Z,9.63
2019-06-15T15:55:34.161Z,6.83
2019-06-15T15:58:31.881Z,8.40
2019-06-15T16:01:29.985Z,8.77
2019-06-15T16:04:28.014Z,9.37
2019-06-15T16:07:27.734Z,8.77
2019-06-15T16:10:26.632Z,4.10
2019-06-15T16:13:26.892Z,5.50
2019-06-15T16:16:26.669Z,5.97
2019-06-15T16:19:26.229Z,4.53
2019-06-15T16:22:26.171Z,5.80
2019-06-15T16:25:26.439Z,11.03
2019-06-15T16:28:26.236Z,7.73
2019-06-15T16:31:28.426Z,10.27
2019-06-15T16:34:23.847Z,7.73
2019-06-15T16:37:21.990Z,7.80
2019-06-15T16:40:22.147Z,8.97
2019-06-15T16:43:19.944Z,5.70
2019-06-15T16:46:17.696Z,7.23
2019-06-15T16:49:18.413Z,6.57
2019-06-15T16:52:16.492Z,3.30
2019-06-15T16:55:16.695Z,5.73
2019-06-15T16:58:15.986Z,7.63
2019-06-15T17:01:13.296Z,5.20
2019-06-15T17:04:11.653Z,3.90
2019-06-15T17:07:09.993Z,8.27
2019-06-15T17:10:07.778Z,6.40
2019-06-15T17:13:06.759Z,8.47
2019-06-15T17:16:06.155Z,7.43
2019-06-15T17:19:06.859Z,9.57
2019-06-15T17:22:14.808Z,9.03
2019-06-15T17:25:05.933Z,4.73
2019-06-15T17:28:03.206Z,7.90
2019-06-15T17:31:01.228Z,5.13
2019-06-15T17:33:59.282Z,6.47
2019-06-15T17:36:57.513Z,9.27
2019-06-15T17:39:56.354Z,6.60
2019-06-15T17:42:54.220Z,5.10
2019-06-15T17:45:51.999Z,6.40
2019-06-15T17:48:50.393Z,7.80
2019-06-15T17:51:48.474Z,5.80
2019-06-15T17:54:46.653Z,6.90
2019-06-15T17:57:46.542Z,5.17
2019-06-15T18:00:47.054Z,6.50
2019-06-15T18:03:51.616Z,5.67
2019-06-15T18:06:46.791Z,9.10
2019-06-15T18:09:46.447Z,5.63
2019-06-15T18:12:43.893Z,9.00
2019-06-15T18:15:42.266Z,9.20
2019-06-15T18:18:40.332Z,9.13
2019-06-15T18:21:41.081Z,8.37
2019-06-15T18:24:37.489Z,6.07
2019-06-15T18:27:37.325Z,7.17
2019-06-15T18:30:36.974Z,6.00
2019-06-15T18:33:36.471Z,6.67
2019-06-15T18:36:36.418Z,6.33
2019-06-15T18:39:33.154Z,7.33
2019-06-15T18:42:30.958Z,8.00
2019-06-15T18:45:28.753Z,7.47
2019-06-15T18:48:26.656Z,5.87
2019-06-15T18:51:26.932Z,6.43
2019-06-15T18:54:26.524Z,8.50
2019-06-15T18:57:24.013Z,6.57
2019-06-15T19:00:26.232Z,8.77
2019-06-15T19:03:26.245Z,9.50
2019-06-15T19:06:26.441Z,8.47
2019-06-15T19:09:26.580Z,17.43
2019-06-15T19:12:26.214Z,12.87
2019-06-15T19:15:24.342Z,10.80
2019-06-15T19:18:22.090Z,6.60
2019-06-15T19:21:19.852Z,8.33
2019-06-15T19:24:18.209Z,6.20
2019-06-15T19:27:16.206Z,5.43
2019-06-15T19:30:14.293Z,5.27
2019-06-15T19:33:12.338Z,8.83
2019-06-15T19:36:10.428Z,5.53
2019-06-15T19:39:08.243Z,5.13
2019-06-15T19:42:06.257Z,5.37
2019-06-15T19:45:09.555Z,7.73
2019-06-15T19:48:06.477Z,4.40
2019-06-15T19:51:04.179Z,6.30
2019-06-15T19:54:02.216Z,7.23
2019-06-15T19:56:59.945Z,9.57
2019-06-15T19:59:57.931Z,4.80
2019-06-15T20:02:57.257Z,5.20
2019-06-15T20:05:56.845Z,5.07
2019-06-15T20:08:56.269Z,4.57
2019-06-15T20:11:56.015Z,7.43
2019-06-15T20:14:56.587Z,7.83
2019-06-15T20:17:53.865Z,5.20
2019-06-15T20:20:51.668Z,11.30
2019-06-15T20:23:49.741Z,5.73
2019-06-15T20:26:47.446Z,5.80
2019-06-15T20:29:47.489Z,5.00
2019-06-15T20:32:46.275Z,4.90
2019-06-15T20:35:46.877Z,6.87
2019-06-15T20:38:43.917Z,4.07
2019-06-15T20:41:41.945Z,5.63
2019-06-15T20:44:40.236Z,4.10
2019-06-15T20:47:38.624Z,6.93
2019-06-15T20:50:36.630Z,4.00
2019-06-15T20:53:36.797Z,6.67
2019-06-15T20:56:37.097Z,4.13
2019-06-15T20:59:36.785Z,10.20
2019-06-15T21:02:36.038Z,5.57
2019-06-15T21:05:38.054Z,4.10
2019-06-15T21:08:32.854Z,6.00
2019-06-15T21:11:31.202Z,6.10
2019-06-15T21:14:29.353Z,7.17
2019-06-15T21:17:27.632Z,4.50
2019-06-15T21:20:26.757Z,4.30
2019-06-15T21:23:26.828Z,4.37
2019-06-15T21:26:26.853Z,4.37
2019-06-15T21:29:26.321Z,4.77
2019-06-15T21:32:23.472Z,5.07
2019-06-15T21:35:21.215Z,4.40
2019-06-15T21:38:22.291Z,6.37
2019-06-15T21:41:20.394Z,13.80
2019-06-15T21:44:18.778Z,4.13
2019-06-15T21:47:16.748Z,4.87
2019-06-15T21:50:16.084Z,5.00
2019-06-15T21:53:16.175Z,3.30
2019-06-15T21:56:16.123Z,7.60
2019-06-15T21:59:13.581Z,5.47
2019-06-15T22:02:11.710Z,5.90
2019-06-15T22:05:09.777Z,5.00
2019-06-15T22:08:07.930Z,3.97
2019-06-15T22:11:06.691Z,4.20
2019-06-15T22:14:06.290Z,1.13
2019-06-15T22:17:06.554Z,1.97
2019-06-15T22:20:06.239Z,2.60
2019-06-15T22:23:03.849Z,2.47
2019-06-15T22:26:01.695Z,1.70
2019-06-15T22:28:59.736Z,4.13
2019-06-15T22:31:58.145Z,4.63
2019-06-15T22:34:56.362Z,3.53
2019-06-15T22:37:56.120Z,3.73
2019-06-15T22:40:56.241Z,3.90
2019-06-15T22:43:53.861Z,1.90
2019-06-15T22:46:51.908Z,6.00
2019-06-15T22:49:50.396Z,1.20
2019-06-15T22:52:48.736Z,4.33
2019-06-15T22:55:46.489Z,4.07
2019-06-15T22:58:46.141Z,2.17
2019-06-15T23:01:45.979Z,1.93
2019-06-15T23:04:44.078Z,3.80
2019-06-15T23:07:42.164Z,2.73
2019-06-15T23:10:40.165Z,3.20
2019-06-15T23:13:38.187Z,2.60
2019-06-15T23:16:36.823Z,2.67
2019-06-15T23:19:34.852Z,3.70
2019-06-15T23:22:32.620Z,2.53
2019-06-15T23:25:30.694Z,2.90
2019-06-15T23:28:29.098Z,4.93
2019-06-15T23:31:26.846Z,2.50
2019-06-15T23:34:26.869Z,3.73
2019-06-15T23:37:26.524Z,3.63
2019-06-15T23:40:26.883Z,6.03
2019-06-15T23:43:26.876Z,5.20
2019-06-15T23:46:27.122Z,5.60
2019-06-15T23:49:26.955Z,4.27
2019-06-15T23:52:26.921Z,4.73
2019-06-15T23:55:26.806Z,3.73
2019-06-15T23:58:26.291Z,4.33
